KSKA/SKA METAR and TAF weather

Enter ICAO airport designator
Station Type Date Time Source
KSKA METAR 2020/01/23 15:17 UTC NOAA

KSKA 231517Z 12006KT 2SM BR OVC004 02/02 A3007 RMK AO2A TWR VIS 1/2 CIG 003 RWY05 SLP204 $


Station Type Date Time Source
KSKA Decoded METAR 2020/01/23 15:17 UTC NOAA

Fairchild Air Force Base, WA, United States (KSKA) 47-37N 117-39W
Jan 23, 2020 - 10:17 AM EST / 2020.01.23 1517 UTC
Wind: from the ESE (120 degrees) at 7 MPH (6 KT):0
Visibility: 2 mile(s):0
Sky conditions: overcast
Weather: mist
Temperature: 35 F (2 C)
Windchill: 28 F (-2 C):1
Dew Point: 35 F (2 C)
Relative Humidity: 100%
Pressure (altimeter): 30.07 in. Hg (1018 hPa)
ob: KSKA 231517Z 12006KT 2SM BR OVC004 02/02 A3007 RMK AO2A TWR VIS 1/2 CIG 003 RWY05 SLP204
cycle: 15

Station Type Date Time Source
KSKA TAF 2020/01/23 23:00 UTC NOAA

TAF
AMD KSKA 222355Z 2223/2401 21009KT 6000 -RA BKN008 OVC010 620209 QNH3005INS
BECMG 2300/2302 18006KT 3200 -RA BR OVC005 650209 QNH3009INS WND 16006KT AFT 2303
BECMG 2311/2312 16006KT 3200 -RA BR BKN003 OVC005 650409 QNH3003INS TX04/2319Z TN00/2304Z

Example: see airport list